sensor_id;sensor_type;location;lat;lon;timestamp;pressure;altitude;pressure_sealevel;temperature;humidity
69535;BME280;56754;51.568;5.048;2023-04-05T00:00:14;102431.47;;;10.88;56.66
69535;BME280;56754;51.568;5.048;2023-04-05T00:02:39;102432.81;;;10.86;56.59
69535;BME280;56754;51.568;5.048;2023-04-05T00:05:06;102435.72;;;10.84;56.82
69535;BME280;56754;51.568;5.048;2023-04-05T00:07:31;102429.03;;;10.82;56.65
69535;BME280;56754;51.568;5.048;2023-04-05T00:09:57;102431.22;;;10.80;56.59
69535;BME280;56754;51.568;5.048;2023-04-05T00:12:22;102433.59;;;10.76;57.03
69535;BME280;56754;51.568;5.048;2023-04-05T00:14:47;102432.81;;;10.76;57.39
69535;BME280;56754;51.568;5.048;2023-04-05T00:17:12;102427.19;;;10.72;57.15
69535;BME280;56754;51.568;5.048;2023-04-05T00:19:38;102432.00;;;10.70;57.02
69535;BME280;56754;51.568;5.048;2023-04-05T00:22:04;102426.41;;;10.66;56.89
69535;BME280;56754;51.568;5.048;2023-04-05T00:24:29;102420.25;;;10.66;56.69
69535;BME280;56754;51.568;5.048;2023-04-05T00:26:54;102426.94;;;10.63;56.85
69535;BME280;56754;51.568;5.048;2023-04-05T00:29:20;102420.25;;;10.61;57.15
69535;BME280;56754;51.568;5.048;2023-04-05T00:31:45;102420.81;;;10.58;57.19
69535;BME280;56754;51.568;5.048;2023-04-05T00:34:10;102419.75;;;10.54;57.65
69535;BME280;56754;51.568;5.048;2023-04-05T00:36:35;102424.56;;;10.52;56.97
69535;BME280;56754;51.568;5.048;2023-04-05T00:39:01;102425.91;;;10.49;57.10
69535;BME280;56754;51.568;5.048;2023-04-05T00:41:26;102415.75;;;10.46;57.48
69535;BME280;56754;51.568;5.048;2023-04-05T00:43:51;102421.38;;;10.44;57.93
69535;BME280;56754;51.568;5.048;2023-04-05T00:46:16;102416.56;;;10.41;57.42
69535;BME280;56754;51.568;5.048;2023-04-05T00:48:42;102416.03;;;10.39;57.20
69535;BME280;56754;51.568;5.048;2023-04-05T00:51:09;102414.69;;;10.37;57.83
69535;BME280;56754;51.568;5.048;2023-04-05T00:53:35;102414.97;;;10.35;57.90
69535;BME280;56754;51.568;5.048;2023-04-05T00:56:00;102410.41;;;10.31;58.05
69535;BME280;56754;51.568;5.048;2023-04-05T00:58:26;102409.88;;;10.29;57.79
69535;BME280;56754;51.568;5.048;2023-04-05T01:03:56;102409.56;;;10.25;57.99
69535;BME280;56754;51.568;5.048;2023-04-05T01:11:58;102395.69;;;10.18;58.88
69535;BME280;56754;51.568;5.048;2023-04-05T01:14:25;102393.28;;;10.16;58.42
69535;BME280;56754;51.568;5.048;2023-04-05T01:16:50;102399.16;;;10.13;57.45
69535;BME280;56754;51.568;5.048;2023-04-05T01:19:16;102392.47;;;10.11;58.37
69535;BME280;56754;51.568;5.048;2023-04-05T01:21:54;102393.81;;;10.08;58.44
69535;BME280;56754;51.568;5.048;2023-04-05T01:24:48;102391.41;;;10.07;57.81
69535;BME280;56754;51.568;5.048;2023-04-05T01:30:38;102385.28;;;10.01;58.36
69535;BME280;56754;51.568;5.048;2023-04-05T01:33:16;102379.38;;;9.99;58.23
69535;BME280;56754;51.568;5.048;2023-04-05T01:38:23;102381.25;;;9.93;58.33
69535;BME280;56754;51.568;5.048;2023-04-05T01:40:49;102388.47;;;9.93;59.31
69535;BME280;56754;51.568;5.048;2023-04-05T01:43:15;102388.47;;;9.93;58.17
69535;BME280;56754;51.568;5.048;2023-04-05T01:45:41;102379.38;;;9.89;58.63
69535;BME280;56754;51.568;5.048;2023-04-05T01:48:07;102385.78;;;9.88;58.63
69535;BME280;56754;51.568;5.048;2023-04-05T01:50:32;102379.66;;;9.87;59.32
69535;BME280;56754;51.568;5.048;2023-04-05T01:52:57;102379.13;;;9.85;58.58
69535;BME280;56754;51.568;5.048;2023-04-05T01:55:23;102376.72;;;9.84;58.91
69535;BME280;56754;51.568;5.048;2023-04-05T01:57:48;102371.91;;;9.80;58.93
69535;BME280;56754;51.568;5.048;2023-04-05T02:00:13;102364.41;;;9.77;58.85
69535;BME280;56754;51.568;5.048;2023-04-05T02:02:39;102365.50;;;9.76;59.13
69535;BME280;56754;51.568;5.048;2023-04-05T02:05:04;102363.88;;;9.75;58.57
69535;BME280;56754;51.568;5.048;2023-04-05T02:07:30;102361.50;;;9.74;58.75
69535;BME280;56754;51.568;5.048;2023-04-05T02:09:55;102355.88;;;9.70;58.59
69535;BME280;56754;51.568;5.048;2023-04-05T02:12:20;102360.69;;;9.68;59.44
69535;BME280;56754;51.568;5.048;2023-04-05T02:14:46;102351.06;;;9.67;59.32
69535;BME280;56754;51.568;5.048;2023-04-05T02:17:11;102355.06;;;9.65;59.53
69535;BME280;56754;51.568;5.048;2023-04-05T02:19:36;102359.88;;;9.63;59.60
69535;BME280;56754;51.568;5.048;2023-04-05T02:22:02;102351.31;;;9.61;59.39
69535;BME280;56754;51.568;5.048;2023-04-05T02:24:27;102352.38;;;9.60;59.21
69535;BME280;56754;51.568;5.048;2023-04-05T02:26:52;102356.38;;;9.57;59.28
69535;BME280;56754;51.568;5.048;2023-04-05T02:29:17;102353.16;;;9.55;59.01
69535;BME280;56754;51.568;5.048;2023-04-05T02:31:43;102353.44;;;9.53;59.03
69535;BME280;56754;51.568;5.048;2023-04-05T02:34:08;102352.09;;;9.51;58.94
69535;BME280;56754;51.568;5.048;2023-04-05T02:36:34;102340.88;;;9.49;59.54
69535;BME280;56754;51.568;5.048;2023-04-05T02:38:59;102346.50;;;9.47;59.81
69535;BME280;56754;51.568;5.048;2023-04-05T02:41:24;102360.09;;;9.46;59.59
69535;BME280;56754;51.568;5.048;2023-04-05T02:43:49;102345.41;;;9.43;60.21
69535;BME280;56754;51.568;5.048;2023-04-05T02:46:15;102338.22;;;9.44;59.97
69535;BME280;56754;51.568;5.048;2023-04-05T02:48:40;102340.34;;;9.42;60.49
69535;BME280;56754;51.568;5.048;2023-04-05T02:51:05;102330.75;;;9.41;59.58
69535;BME280;56754;51.568;5.048;2023-04-05T02:53:31;102339.00;;;9.39;60.35
69535;BME280;56754;51.568;5.048;2023-04-05T02:55:56;102337.41;;;9.38;60.65
69535;BME280;56754;51.568;5.048;2023-04-05T02:58:22;102337.66;;;9.37;60.39
69535;BME280;56754;51.568;5.048;2023-04-05T03:00:48;102327.78;;;9.37;59.76
69535;BME280;56754;51.568;5.048;2023-04-05T03:03:14;102325.94;;;9.38;60.32
69535;BME280;56754;51.568;5.048;2023-04-05T03:05:39;102324.03;;;9.33;60.91
69535;BME280;56754;51.568;5.048;2023-04-05T03:08:04;102321.63;;;9.31;60.93
69535;BME280;56754;51.568;5.048;2023-04-05T03:10:30;102320.03;;;9.30;61.05
69535;BME280;56754;51.568;5.048;2023-04-05T03:12:55;102318.69;;;9.28;60.81
69535;BME280;56754;51.568;5.048;2023-04-05T03:15:20;102318.97;;;9.26;60.17
69535;BME280;56754;51.568;5.048;2023-04-05T03:17:45;102315.50;;;9.26;60.92
69535;BME280;56754;51.568;5.048;2023-04-05T03:20:11;102313.88;;;9.25;60.87
69535;BME280;56754;51.568;5.048;2023-04-05T03:22:37;102313.88;;;9.25;61.86
69535;BME280;56754;51.568;5.048;2023-04-05T03:25:02;102318.66;;;9.23;61.47
69535;BME280;56754;51.568;5.048;2023-04-05T03:27:27;102310.94;;;9.21;60.70
69535;BME280;56754;51.568;5.048;2023-04-05T03:29:53;102310.16;;;9.21;61.69
69535;BME280;56754;51.568;5.048;2023-04-05T03:32:18;102305.84;;;9.20;61.81
69535;BME280;56754;51.568;5.048;2023-04-05T03:34:43;102299.72;;;9.19;61.00
69535;BME280;56754;51.568;5.048;2023-04-05T03:37:09;102300.00;;;9.18;60.99
69535;BME280;56754;51.568;5.048;2023-04-05T03:39:34;102301.06;;;9.17;61.08
69535;BME280;56754;51.568;5.048;2023-04-05T03:41:59;102290.66;;;9.15;62.10
69535;BME280;56754;51.568;5.048;2023-04-05T03:44:24;102299.75;;;9.14;61.40
69535;BME280;56754;51.568;5.048;2023-04-05T03:46:50;102294.66;;;9.13;61.57
69535;BME280;56754;51.568;5.048;2023-04-05T03:49:15;102297.59;;;9.11;62.20
69535;BME280;56754;51.568;5.048;2023-04-05T03:51:40;102302.38;;;9.09;61.51
69535;BME280;56754;51.568;5.048;2023-04-05T03:54:06;102303.19;;;9.09;61.49
69535;BME280;56754;51.568;5.048;2023-04-05T03:56:31;102304.25;;;9.08;61.97
69535;BME280;56754;51.568;5.048;2023-04-05T03:58:56;102305.28;;;9.07;61.89
69535;BME280;56754;51.568;5.048;2023-04-05T04:01:22;102297.56;;;9.06;62.23
69535;BME280;56754;51.568;5.048;2023-04-05T04:03:47;102299.69;;;9.04;61.50
69535;BME280;56754;51.568;5.048;2023-04-05T04:06:12;102293.56;;;9.03;61.71
69535;BME280;56754;51.568;5.048;2023-04-05T04:08:38;102298.09;;;9.03;62.21
69535;BME280;56754;51.568;5.048;2023-04-05T04:11:03;102305.56;;;9.01;62.31
69535;BME280;56754;51.568;5.048;2023-04-05T04:13:28;102297.81;;;8.99;62.34
69535;BME280;56754;51.568;5.048;2023-04-05T04:15:54;102301.53;;;8.98;62.23
69535;BME280;56754;51.568;5.048;2023-04-05T04:18:19;102296.22;;;8.98;62.42
69535;BME280;56754;51.568;5.048;2023-04-05T04:20:44;102306.06;;;8.98;62.24
69535;BME280;56754;51.568;5.048;2023-04-05T04:23:09;102304.75;;;9.00;62.44
69535;BME280;56754;51.568;5.048;2023-04-05T04:25:35;102298.88;;;8.98;62.23
69535;BME280;56754;51.568;5.048;2023-04-05T04:28:02;102298.34;;;8.96;62.53
69535;BME280;56754;51.568;5.048;2023-04-05T04:30:28;102301.81;;;8.97;62.28
69535;BME280;56754;51.568;5.048;2023-04-05T04:32:53;102298.59;;;8.95;62.64
69535;BME280;56754;51.568;5.048;2023-04-05T04:35:26;102302.06;;;8.95;61.91
69535;BME280;56754;51.568;5.048;2023-04-05T04:37:58;102298.59;;;8.95;62.76
69535;BME280;56754;51.568;5.048;2023-04-05T04:40:35;102298.06;;;8.93;62.41
69535;BME280;56754;51.568;5.048;2023-04-05T04:43:00;102302.59;;;8.92;62.66
69535;BME280;56754;51.568;5.048;2023-04-05T04:45:26;102294.03;;;8.90;63.21
69535;BME280;56754;51.568;5.048;2023-04-05T04:47:51;102287.09;;;8.89;62.77
69535;BME280;56754;51.568;5.048;2023-04-05T04:50:18;102292.44;;;8.89;62.26
69535;BME280;56754;51.568;5.048;2023-04-05T04:52:45;102295.91;;;8.89;62.22
69535;BME280;56754;51.568;5.048;2023-04-05T04:55:11;102295.38;;;8.87;62.55
69535;BME280;56754;51.568;5.048;2023-04-05T04:57:36;102284.72;;;8.87;62.25
69535;BME280;56754;51.568;5.048;2023-04-05T05:00:02;102285.75;;;8.86;62.33
69535;BME280;56754;51.568;5.048;2023-04-05T05:02:27;102286.56;;;8.87;60.96
69535;BME280;56754;51.568;5.048;2023-04-05T05:04:53;102292.97;;;8.86;62.04
69535;BME280;56754;51.568;5.048;2023-04-05T05:07:19;102286.03;;;8.85;62.12
69535;BME280;56754;51.568;5.048;2023-04-05T05:09:44;102290.56;;;8.84;62.57
69535;BME280;56754;51.568;5.048;2023-04-05T05:12:09;102288.16;;;8.83;61.99
69535;BME280;56754;51.568;5.048;2023-04-05T05:14:35;102288.41;;;8.81;61.21
69535;BME280;56754;51.568;5.048;2023-04-05T05:17:00;102284.94;;;8.81;62.24
69535;BME280;56754;51.568;5.048;2023-04-05T05:19:27;102291.91;;;8.82;61.65
69535;BME280;56754;51.568;5.048;2023-04-05T05:21:52;102286.81;;;8.80;62.36
69535;BME280;56754;51.568;5.048;2023-04-05T05:24:17;102286.00;;;8.80;61.86
69535;BME280;56754;51.568;5.048;2023-04-05T05:26:42;102292.66;;;8.77;62.82
69535;BME280;56754;51.568;5.048;2023-04-05T05:29:08;102290.28;;;8.76;62.45
69535;BME280;56754;51.568;5.048;2023-04-05T05:31:33;102290.28;;;8.76;61.64
69535;BME280;56754;51.568;5.048;2023-04-05T05:33:58;102287.34;;;8.77;62.80
69535;BME280;56754;51.568;5.048;2023-04-05T05:36:24;102291.59;;;8.78;62.21
69535;BME280;56754;51.568;5.048;2023-04-05T05:38:49;102299.59;;;8.78;62.21
69535;BME280;56754;51.568;5.048;2023-04-05T05:41:14;102298.78;;;8.78;61.76
69535;BME280;56754;51.568;5.048;2023-04-05T05:43:40;102290.78;;;8.78;62.90
69535;BME280;56754;51.568;5.048;2023-04-05T05:46:05;102290.00;;;8.77;61.90
69535;BME280;56754;51.568;5.048;2023-04-05T05:48:30;102293.75;;;8.76;62.47
69535;BME280;56754;51.568;5.048;2023-04-05T05:50:56;102290.28;;;8.76;62.20
69535;BME280;56754;51.568;5.048;2023-04-05T05:53:21;102289.19;;;8.77;61.84
69535;BME280;56754;51.568;5.048;2023-04-05T05:55:46;102292.66;;;8.77;61.28
69535;BME280;56754;51.568;5.048;2023-04-05T05:58:11;102296.94;;;8.78;62.63
69535;BME280;56754;51.568;5.048;2023-04-05T06:00:37;102302.00;;;8.80;61.59
69535;BME280;56754;51.568;5.048;2023-04-05T06:03:02;102299.59;;;8.78;62.28
69535;BME280;56754;51.568;5.048;2023-04-05T06:05:27;102296.41;;;8.81;61.94
69535;BME280;56754;51.568;5.048;2023-04-05T06:07:53;102304.16;;;8.83;60.49
69535;BME280;56754;51.568;5.048;2023-04-05T06:10:18;102298.81;;;8.83;61.43
69535;BME280;56754;51.568;5.048;2023-04-05T06:12:43;102302.03;;;8.85;60.74
69535;BME280;56754;51.568;5.048;2023-04-05T06:15:09;102307.38;;;8.85;61.40
69535;BME280;56754;51.568;5.048;2023-04-05T06:17:35;102304.44;;;8.86;60.93
69535;BME280;56754;51.568;5.048;2023-04-05T06:20:00;102302.03;;;8.85;62.87
69535;BME280;56754;51.568;5.048;2023-04-05T06:22:25;102298.31;;;8.86;62.54
69535;BME280;56754;51.568;5.048;2023-04-05T06:24:50;102307.66;;;8.88;61.21
69535;BME280;56754;51.568;5.048;2023-04-05T06:27:16;102302.59;;;8.92;61.28
69535;BME280;56754;51.568;5.048;2023-04-05T06:29:41;102306.59;;;8.95;61.03
69535;BME280;56754;51.568;5.048;2023-04-05T06:32:06;102298.06;;;8.98;61.71
69535;BME280;56754;51.568;5.048;2023-04-05T06:34:32;102299.41;;;9.00;61.02
69535;BME280;56754;51.568;5.048;2023-04-05T06:36:57;102295.44;;;9.03;60.80
69535;BME280;56754;51.568;5.048;2023-04-05T06:39:22;102301.34;;;9.15;62.74
69535;BME280;56754;51.568;5.048;2023-04-05T06:41:47;102289.91;;;9.45;60.86
69535;BME280;56754;51.568;5.048;2023-04-05T06:44:13;102291.50;;;9.67;60.04
69535;BME280;56754;51.568;5.048;2023-04-05T06:46:38;102293.13;;;9.83;58.95
69535;BME280;56754;51.568;5.048;2023-04-05T06:49:03;102294.97;;;9.93;58.55
69535;BME280;56754;51.568;5.048;2023-04-05T06:51:29;102294.44;;;10.01;57.96
69535;BME280;56754;51.568;5.048;2023-04-05T06:53:54;102287.47;;;10.05;58.14
69535;BME280;56754;51.568;5.048;2023-04-05T06:56:20;102287.47;;;10.10;57.67
69535;BME280;56754;51.568;5.048;2023-04-05T06:58:45;102292.84;;;10.15;57.48
69535;BME280;56754;51.568;5.048;2023-04-05T07:01:10;102290.16;;;10.20;57.26
69535;BME280;56754;51.568;5.048;2023-04-05T07:03:35;102290.91;;;10.26;56.81
69535;BME280;56754;51.568;5.048;2023-04-05T07:06:01;102295.50;;;10.31;56.06
69535;BME280;56754;51.568;5.048;2023-04-05T07:08:27;102292.81;;;10.36;56.05
69535;BME280;56754;51.568;5.048;2023-04-05T07:10:53;102294.66;;;10.40;55.97
69535;BME280;56754;51.568;5.048;2023-04-05T07:13:20;102286.91;;;10.44;55.79
69535;BME280;56754;51.568;5.048;2023-04-05T07:15:46;102282.34;;;10.50;56.06
69535;BME280;56754;51.568;5.048;2023-04-05T07:18:12;102282.31;;;10.55;55.57
69535;BME280;56754;51.568;5.048;2023-04-05T07:20:37;102287.66;;;10.60;55.41
69535;BME280;56754;51.568;5.048;2023-04-05T07:23:03;102286.81;;;10.64;55.61
69535;BME280;56754;51.568;5.048;2023-04-05T07:25:29;102291.06;;;10.70;55.40
69535;BME280;56754;51.568;5.048;2023-04-05T07:27:54;102292.16;;;10.75;55.44
69535;BME280;56754;51.568;5.048;2023-04-05T07:30:19;102296.41;;;10.81;55.17
69535;BME280;56754;51.568;5.048;2023-04-05T07:32:45;102291.81;;;10.86;55.37
69535;BME280;56754;51.568;5.048;2023-04-05T07:35:10;102289.13;;;10.91;55.23
69535;BME280;56754;51.568;5.048;2023-04-05T07:37:35;102288.28;;;10.96;55.21
69535;BME280;56754;51.568;5.048;2023-04-05T07:40:01;102287.47;;;11.01;55.31
69535;BME280;56754;51.568;5.048;2023-04-05T07:42:26;102289.84;;;11.07;55.45
69535;BME280;56754;51.568;5.048;2023-04-05T07:44:51;102293.56;;;11.11;55.03
69535;BME280;56754;51.568;5.048;2023-04-05T07:47:17;102290.84;;;11.16;54.34
69535;BME280;56754;51.568;5.048;2023-04-05T07:49:42;102296.19;;;11.22;54.31
69535;BME280;56754;51.568;5.048;2023-04-05T07:52:07;102286.50;;;11.26;54.10
69535;BME280;56754;51.568;5.048;2023-04-05T07:54:33;102293.44;;;11.32;54.57
69535;BME280;56754;51.568;5.048;2023-04-05T07:56:58;102296.09;;;11.37;54.32
69535;BME280;56754;51.568;5.048;2023-04-05T07:59:24;102290.16;;;11.40;54.20
69535;BME280;56754;51.568;5.048;2023-04-05T08:01:50;102291.19;;;11.44;54.30
69535;BME280;56754;51.568;5.048;2023-04-05T08:04:15;102294.41;;;11.46;53.80
69535;BME280;56754;51.568;5.048;2023-04-05T08:06:40;102290.38;;;11.49;53.48
69535;BME280;56754;51.568;5.048;2023-04-05T08:09:06;102293.28;;;11.52;54.30
69535;BME280;56754;51.568;5.048;2023-04-05T08:11:31;102295.41;;;11.55;53.70
69535;BME280;56754;51.568;5.048;2023-04-05T08:13:56;102297.53;;;11.58;53.71
69535;BME280;56754;51.568;5.048;2023-04-05T08:16:22;102292.69;;;11.60;53.13
69535;BME280;56754;51.568;5.048;2023-04-05T08:18:47;102291.34;;;11.63;53.08
69535;BME280;56754;51.568;5.048;2023-04-05T08:21:12;102287.31;;;11.66;53.25
69535;BME280;56754;51.568;5.048;2023-04-05T08:23:38;102288.59;;;11.68;53.05
69535;BME280;56754;51.568;5.048;2023-04-05T08:26:03;102280.03;;;11.71;52.96
69535;BME280;56754;51.568;5.048;2023-04-05T08:28:28;102281.31;;;11.74;52.49
69535;BME280;56754;51.568;5.048;2023-04-05T08:30:54;102281.84;;;11.76;52.17
69535;BME280;56754;51.568;5.048;2023-04-05T08:33:19;102283.19;;;11.78;52.63
69535;BME280;56754;51.568;5.048;2023-04-05T08:35:44;102279.16;;;11.81;51.78
69535;BME280;56754;51.568;5.048;2023-04-05T08:38:10;102281.53;;;11.82;51.69
69535;BME280;56754;51.568;5.048;2023-04-05T08:40:46;102280.19;;;11.85;52.11
69535;BME280;56754;51.568;5.048;2023-04-05T08:45:49;102273.72;;;11.91;51.62
69535;BME280;56754;51.568;5.048;2023-04-05T08:48:15;102271.56;;;11.93;51.38
69535;BME280;56754;51.568;5.048;2023-04-05T08:50:41;102277.44;;;11.95;51.12
69535;BME280;56754;51.568;5.048;2023-04-05T08:53:06;102276.34;;;11.96;50.88
69535;BME280;56754;51.568;5.048;2023-04-05T08:55:32;102275.25;;;11.97;50.82
69535;BME280;56754;51.568;5.048;2023-04-05T08:57:59;102269.31;;;12.00;51.11
69535;BME280;56754;51.568;5.048;2023-04-05T09:00:26;102277.91;;;12.02;51.07
69535;BME280;56754;51.568;5.048;2023-04-05T09:02:54;102276.00;;;12.03;50.75
69535;BME280;56754;51.568;5.048;2023-04-05T09:05:22;102273.84;;;12.05;50.99
69535;BME280;56754;51.568;5.048;2023-04-05T09:07:49;102273.84;;;12.05;49.82
69535;BME280;56754;51.568;5.048;2023-04-05T09:10:17;102278.91;;;12.06;50.54
69535;BME280;56754;51.568;5.048;2023-04-05T09:12:43;102274.06;;;12.09;50.50
69535;BME280;56754;51.568;5.048;2023-04-05T09:15:09;102281.84;;;12.10;50.59
69535;BME280;56754;51.568;5.048;2023-04-05T09:17:38;102274.59;;;12.11;50.49
69535;BME280;56754;51.568;5.048;2023-04-05T09:20:04;102273.81;;;12.10;49.89
69535;BME280;56754;51.568;5.048;2023-04-05T09:22:29;102271.94;;;12.11;50.99
69535;BME280;56754;51.568;5.048;2023-04-05T09:24:54;102276.97;;;12.12;50.40
69535;BME280;56754;51.568;5.048;2023-04-05T09:27:20;102264.41;;;12.13;50.19
69535;BME280;56754;51.568;5.048;2023-04-05T09:29:46;102264.41;;;12.13;49.38
69535;BME280;56754;51.568;5.048;2023-04-05T09:32:13;102266.00;;;12.14;49.23
69535;BME280;56754;51.568;5.048;2023-04-05T09:34:40;102262.53;;;12.13;49.65
69535;BME280;56754;51.568;5.048;2023-04-05T09:37:16;102262.22;;;12.15;49.26
69535;BME280;56754;51.568;5.048;2023-04-05T09:39:42;102256.84;;;12.15;49.43
69535;BME280;56754;51.568;5.048;2023-04-05T09:42:12;102253.91;;;12.16;49.66
69535;BME280;56754;51.568;5.048;2023-04-05T09:44:55;102263.53;;;12.17;50.40
69535;BME280;56754;51.568;5.048;2023-04-05T09:47:23;102254.41;;;12.18;50.06
69535;BME280;56754;51.568;5.048;2023-04-05T09:49:49;102251.44;;;12.20;50.11
69535;BME280;56754;51.568;5.048;2023-04-05T09:52:18;102257.59;;;12.20;49.38
69535;BME280;56754;51.568;5.048;2023-04-05T09:54:43;102246.88;;;12.20;49.69
69535;BME280;56754;51.568;5.048;2023-04-05T09:57:09;102248.78;;;12.20;49.42
69535;BME280;56754;51.568;5.048;2023-04-05T09:59:34;102247.69;;;12.21;50.74
69535;BME280;56754;51.568;5.048;2023-04-05T10:01:59;102249.28;;;12.22;50.97
69535;BME280;56754;51.568;5.048;2023-04-05T10:04:25;102257.34;;;12.22;50.37
69535;BME280;56754;51.568;5.048;2023-04-05T10:06:50;102239.38;;;12.22;50.62
69535;BME280;56754;51.568;5.048;2023-04-05T10:09:16;102239.38;;;12.22;50.57
69535;BME280;56754;51.568;5.048;2023-04-05T10:11:42;102240.16;;;12.23;50.52
69535;BME280;56754;51.568;5.048;2023-04-05T10:14:08;102234.78;;;12.23;49.76
69535;BME280;56754;51.568;5.048;2023-04-05T10:19:19;102231.91;;;12.19;50.08
69535;BME280;56754;51.568;5.048;2023-04-05T10:21:48;102228.13;;;12.20;49.81
69535;BME280;56754;51.568;5.048;2023-04-05T10:24:37;102224.34;;;12.21;49.55
69535;BME280;56754;51.568;5.048;2023-04-05T10:27:08;102224.34;;;12.21;49.76
69535;BME280;56754;51.568;5.048;2023-04-05T10:32:40;102225.66;;;12.24;50.18
69535;BME280;56754;51.568;5.048;2023-04-05T10:37:42;102226.19;;;12.26;50.44
69535;BME280;56754;51.568;5.048;2023-04-05T10:40:10;102220.56;;;12.27;50.38
69535;BME280;56754;51.568;5.048;2023-04-05T10:42:42;102210.63;;;12.28;50.85
69535;BME280;56754;51.568;5.048;2023-04-05T10:45:09;102220.25;;;12.29;50.79
69535;BME280;56754;51.568;5.048;2023-04-05T10:47:41;102212.72;;;12.31;50.69
69535;BME280;56754;51.568;5.048;2023-04-05T10:50:11;102213.53;;;12.32;49.93
69535;BME280;56754;51.568;5.048;2023-04-05T10:52:41;102210.84;;;12.32;50.43
69535;BME280;56754;51.568;5.048;2023-04-05T10:55:08;102211.34;;;12.34;50.72
69535;BME280;56754;51.568;5.048;2023-04-05T10:57:35;102208.38;;;12.35;50.75
69535;BME280;56754;51.568;5.048;2023-04-05T11:00:02;102201.91;;;12.36;50.25
69535;BME280;56754;51.568;5.048;2023-04-05T11:02:28;102200.06;;;12.37;49.32
69535;BME280;56754;51.568;5.048;2023-04-05T11:04:54;102192.28;;;12.35;49.42
69535;BME280;56754;51.568;5.048;2023-04-05T11:07:20;102196.06;;;12.34;48.88
69535;BME280;56754;51.568;5.048;2023-04-05T11:10:01;102185.91;;;12.31;48.88
69535;BME280;56754;51.568;5.048;2023-04-05T11:18:10;102190.19;;;12.32;48.65
69535;BME280;56754;51.568;5.048;2023-04-05T11:20:40;102188.28;;;12.33;48.32
69535;BME280;56754;51.568;5.048;2023-04-05T11:23:05;102184.81;;;12.32;48.99
69535;BME280;56754;51.568;5.048;2023-04-05T11:25:30;102185.63;;;12.33;49.61
69535;BME280;56754;51.568;5.048;2023-04-05T11:27:59;102187.72;;;12.36;49.24
69535;BME280;56754;51.568;5.048;2023-04-05T11:30:47;102181.28;;;12.37;49.46
69535;BME280;56754;51.568;5.048;2023-04-05T11:36:00;102179.09;;;12.39;49.30
69535;BME280;56754;51.568;5.048;2023-04-05T11:38:26;102172.66;;;12.40;49.60
69535;BME280;56754;51.568;5.048;2023-04-05T11:41:04;102168.09;;;12.40;49.75
69535;BME280;56754;51.568;5.048;2023-04-05T11:43:30;102177.47;;;12.43;50.77
69535;BME280;56754;51.568;5.048;2023-04-05T11:45:56;102170.72;;;12.45;50.27
69535;BME280;56754;51.568;5.048;2023-04-05T11:48:26;102155.91;;;12.48;50.22
69535;BME280;56754;51.568;5.048;2023-04-05T11:50:52;102161.53;;;12.51;50.41
69535;BME280;56754;51.568;5.048;2023-04-05T11:53:18;102148.13;;;12.51;50.73
69535;BME280;56754;51.568;5.048;2023-04-05T11:55:45;102145.63;;;12.55;50.72
69535;BME280;56754;51.568;5.048;2023-04-05T11:58:30;102138.13;;;12.57;51.51
69535;BME280;56754;51.568;5.048;2023-04-05T12:01:01;102147.16;;;12.61;51.36
69535;BME280;56754;51.568;5.048;2023-04-05T12:03:28;102138.03;;;12.62;50.53
69535;BME280;56754;51.568;5.048;2023-04-05T12:05:54;102137.75;;;12.64;50.76
69535;BME280;56754;51.568;5.048;2023-04-05T12:08:21;102134.75;;;12.65;50.71
69535;BME280;56754;51.568;5.048;2023-04-05T12:10:57;102135.28;;;12.67;50.18
69535;BME280;56754;51.568;5.048;2023-04-05T12:13:30;102135.00;;;12.69;50.17
69535;BME280;56754;51.568;5.048;2023-04-05T12:16:00;102130.13;;;12.71;50.89
69535;BME280;56754;51.568;5.048;2023-04-05T12:18:27;102132.53;;;12.72;50.43
69535;BME280;56754;51.568;5.048;2023-04-05T12:20:54;102127.34;;;12.76;49.94
69535;BME280;56754;51.568;5.048;2023-04-05T12:23:23;102119.81;;;12.78;49.91
69535;BME280;56754;51.568;5.048;2023-04-05T12:25:50;102127.28;;;12.81;49.90
69535;BME280;56754;51.568;5.048;2023-04-05T12:28:16;102120.75;;;12.87;49.69
69535;BME280;56754;51.568;5.048;2023-04-05T12:30:49;102123.34;;;12.92;50.18
69535;BME280;56754;51.568;5.048;2023-04-05T12:33:28;102123.25;;;12.97;50.04
69535;BME280;56754;51.568;5.048;2023-04-05T12:35:53;102115.13;;;13.03;50.35
69535;BME280;56754;51.568;5.048;2023-04-05T12:38:19;102109.97;;;13.06;49.69
69535;BME280;56754;51.568;5.048;2023-04-05T12:40:44;102103.72;;;13.11;50.08
69535;BME280;56754;51.568;5.048;2023-04-05T12:43:09;102096.66;;;13.15;49.07
69535;BME280;56754;51.568;5.048;2023-04-05T12:45:35;102098.75;;;13.18;47.71
69535;BME280;56754;51.568;5.048;2023-04-05T12:48:01;102096.00;;;13.23;47.46
69535;BME280;56754;51.568;5.048;2023-04-05T12:50:29;102095.94;;;13.28;47.40
69535;BME280;56754;51.568;5.048;2023-04-05T12:52:59;102089.38;;;13.34;47.01
69535;BME280;56754;51.568;5.048;2023-04-05T12:55:26;102086.59;;;13.39;46.71
69535;BME280;56754;51.568;5.048;2023-04-05T12:57:54;102099.94;;;13.45;46.27
69535;BME280;56754;51.568;5.048;2023-04-05T13:00:21;102089.69;;;13.47;46.56
69535;BME280;56754;51.568;5.048;2023-04-05T13:02:50;102091.19;;;13.53;46.10
69535;BME280;56754;51.568;5.048;2023-04-05T13:05:16;102087.59;;;13.57;45.94
69535;BME280;56754;51.568;5.048;2023-04-05T13:07:41;102081.34;;;13.62;45.67
69535;BME280;56754;51.568;5.048;2023-04-05T13:10:07;102078.56;;;13.67;46.35
69535;BME280;56754;51.568;5.048;2023-04-05T13:12:33;102073.06;;;13.72;46.10
69535;BME280;56754;51.568;5.048;2023-04-05T13:14:58;102067.59;;;13.77;45.77
69535;BME280;56754;51.568;5.048;2023-04-05T13:17:23;102066.69;;;13.82;46.36
69535;BME280;56754;51.568;5.048;2023-04-05T13:19:48;102063.09;;;13.86;48.27
69535;BME280;56754;51.568;5.048;2023-04-05T13:22:14;102061.69;;;13.89;48.53
69535;BME280;56754;51.568;5.048;2023-04-05T13:24:39;102063.78;;;13.92;48.25